»·PEaware :: N292MC KTUS-KDUG

N292MC :: KTUS-KDUG

FLIGHT INFORMATION

Flight Status: Arrived
Operator: Privately registered:
United States
More flights under this callsign
Pilot: Maurice C. (12314)
Aircraft: Unknown
(KODI)
More flights by this aircraft type
Origin: KTUS Tucson Intl
United States
Destination: KDUG Bisbee Douglas Intl
United States
More flights between these airports :: More routes between these airports
Route: MESCA
File this flight plan on PilotEdge
Remarks: ALPHABET CHALLENGE
Altitude:
(Current/Filed)
9,500ft
Speed:
(Current/Filed)
180kts
Departed: 16-Oct-20 01:47 PM
Arrived: 16-Oct-20 02:17 PM
Distance/Time
Traveled:
79nm/0:30
Distance/Time
To Go:
Arrived

Flight Plot

Page will automatically refresh every two minutes.

Flight plan parsing failed; only flown route is shown


Map Options




Map Legend


Flown Route
Filed Route
Departure Airport
Arrival Airport
Navaid (VOR, NDB)
Fix

Horizontal Profiles

Position Reports

Time Latitude Longitude Heading Altitude Ground
Speed
16-Oct-20 13:26 32.124025 -110.943948 135 2585ft 0kts
16-Oct-20 13:27 32.124025 -110.943948 135 2585ft 0kts
16-Oct-20 13:28 32.124025 -110.943948 135 2585ft 0kts
16-Oct-20 13:29 32.124025 -110.943948 135 2585ft 0kts
16-Oct-20 13:30 32.124025 -110.943948 135 2585ft 0kts
16-Oct-20 13:31 32.124025 -110.943948 135 2585ft 0kts
16-Oct-20 13:32 32.124025 -110.943948 135 2585ft 0kts
16-Oct-20 13:33 32.124025 -110.943948 134 2585ft 0kts
16-Oct-20 13:34 32.124025 -110.943948 134 2585ft 0kts
16-Oct-20 13:35 32.124025 -110.943948 134 2585ft 0kts
16-Oct-20 13:36 32.124025 -110.943948 134 2585ft 0kts
16-Oct-20 13:37 32.124025 -110.943948 134 2585ft 0kts
16-Oct-20 13:38 32.124023 -110.943946 134 2585ft 0kts
16-Oct-20 13:39 32.124023 -110.943946 134 2585ft 0kts
16-Oct-20 13:40 32.124023 -110.943946 134 2585ft 0kts
16-Oct-20 13:41 32.123288 -110.945385 315 2585ft 0kts
16-Oct-20 13:42 32.124909 -110.947775 201 2579ft 5kts
16-Oct-20 13:43 32.124696 -110.947743 207 2579ft 3kts
16-Oct-20 13:44 32.123832 -110.946701 184 2582ft 10kts
16-Oct-20 13:45 32.123637 -110.946850 223 2582ft 0kts
16-Oct-20 13:46 32.112693 -110.935959 134 3145ft 98kts
16-Oct-20 13:47 32.093802 -110.904856 110 4028ft 131kts
16-Oct-20 13:48 32.072753 -110.861810 117 4620ft 166kts
16-Oct-20 13:49 32.050860 -110.813567 117 5283ft 167kts
16-Oct-20 13:50 32.028249 -110.765752 117 5911ft 167kts
16-Oct-20 13:51 32.005572 -110.717960 117 6526ft 167kts
16-Oct-20 13:52 31.983045 -110.670504 117 7119ft 165kts
16-Oct-20 13:53 31.960631 -110.623355 117 7690ft 164kts
16-Oct-20 13:54 31.938343 -110.576504 118 8242ft 164kts
16-Oct-20 13:55 31.916078 -110.529807 119 8775ft 163kts
16-Oct-20 13:56 31.893335 -110.483960 118 9333ft 160kts
16-Oct-20 13:57 31.871179 -110.436966 118 9636ft 172kts
16-Oct-20 13:58 31.847534 -110.386966 118 9634ft 176kts
16-Oct-20 13:59 31.823779 -110.336720 119 9676ft 174kts
16-Oct-20 14:00 31.800050 -110.286577 119 9685ft 176kts
16-Oct-20 14:01 31.776144 -110.236180 119 9682ft 176kts
16-Oct-20 14:02 31.752212 -110.185739 119 9676ft 176kts
16-Oct-20 14:03 31.727916 -110.134701 119 9515ft 179kts
16-Oct-20 14:04 31.703890 -110.084147 119 9512ft 177kts
16-Oct-20 14:05 31.679890 -110.033830 119 9511ft 176kts
16-Oct-20 14:06 31.655594 -109.982949 119 9279ft 184kts
16-Oct-20 14:07 31.630116 -109.929696 118 8711ft 188kts
16-Oct-20 14:08 31.604493 -109.876231 118 8113ft 186kts
16-Oct-20 14:09 31.579181 -109.823358 118 7484ft 186kts
16-Oct-20 14:10 31.554481 -109.771875 117 7310ft 175kts
16-Oct-20 14:11 31.530551 -109.722026 117 7135ft 181kts
16-Oct-20 14:12 31.505251 -109.669513 117 6494ft 188kts
16-Oct-20 14:13 31.478306 -109.628989 135 5145ft 112kts
16-Oct-20 14:14 31.453180 -109.625314 173 4554ft 81kts
16-Oct-20 14:15 31.450658 -109.605365 26 4258ft 74kts
16-Oct-20 14:16 31.459497 -109.603281 90 4108ft 13kts
16-Oct-20 14:17 31.460834 -109.599799 2 4113ft 13kts
16-Oct-20 14:18 31.461435 -109.599151 8 4115ft 0kts
16-Oct-20 14:19 31.461435 -109.599151 8 4115ft 0kts
16-Oct-20 14:20 31.461435 -109.599151 8 4115ft 0kts
16-Oct-20 14:21 31.461435 -109.599151 8 4115ft 0kts
16-Oct-20 14:22 31.461435 -109.599151 8 4115ft 0kts
16-Oct-20 14:23 31.461435 -109.599151 8 4115ft 0kts
16-Oct-20 14:24 31.461435 -109.599151 8 4115ft 0kts

Navigation Log

Ident Type
Flight plan parsing failed, navigation log unavailable